sensor_id;sensor_type;location;lat;lon;timestamp;temperature;humidity
21171;DHT22;10743;52.160;20.910;2023-12-22T00:02:20;23.40;33.50
21171;DHT22;10743;52.160;20.910;2023-12-22T00:04:47;23.40;33.00
21171;DHT22;10743;52.160;20.910;2023-12-22T00:07:15;23.40;33.40
21171;DHT22;10743;52.160;20.910;2023-12-22T00:09:42;23.40;33.20
21171;DHT22;10743;52.160;20.910;2023-12-22T00:12:09;23.30;33.20
21171;DHT22;10743;52.160;20.910;2023-12-22T00:14:36;23.30;33.20
21171;DHT22;10743;52.160;20.910;2023-12-22T00:17:04;23.30;32.90
21171;DHT22;10743;52.160;20.910;2023-12-22T00:19:31;23.30;33.00
21171;DHT22;10743;52.160;20.910;2023-12-22T00:21:58;23.30;32.80
21171;DHT22;10743;52.160;20.910;2023-12-22T00:24:25;23.30;32.80
21171;DHT22;10743;52.160;20.910;2023-12-22T00:26:52;23.30;32.70
21171;DHT22;10743;52.160;20.910;2023-12-22T00:29:19;23.40;32.70
21171;DHT22;10743;52.160;20.910;2023-12-22T00:31:47;23.40;32.60
21171;DHT22;10743;52.160;20.910;2023-12-22T00:34:14;23.40;32.60
21171;DHT22;10743;52.160;20.910;2023-12-22T00:36:41;23.40;32.60
21171;DHT22;10743;52.160;20.910;2023-12-22T00:39:08;23.30;32.70
21171;DHT22;10743;52.160;20.910;2023-12-22T00:41:35;23.30;32.80
21171;DHT22;10743;52.160;20.910;2023-12-22T00:44:03;23.30;32.40
21171;DHT22;10743;52.160;20.910;2023-12-22T00:46:29;23.40;32.40
21171;DHT22;10743;52.160;20.910;2023-12-22T00:48:57;23.40;32.40
21171;DHT22;10743;52.160;20.910;2023-12-22T00:51:24;23.30;32.30
21171;DHT22;10743;52.160;20.910;2023-12-22T00:53:51;23.30;32.10
21171;DHT22;10743;52.160;20.910;2023-12-22T00:56:18;23.30;32.30
21171;DHT22;10743;52.160;20.910;2023-12-22T00:58:45;23.30;32.00
21171;DHT22;10743;52.160;20.910;2023-12-22T01:01:23;23.20;31.90
21171;DHT22;10743;52.160;20.910;2023-12-22T01:03:50;23.20;32.00
21171;DHT22;10743;52.160;20.910;2023-12-22T01:06:17;23.20;31.80
21171;DHT22;10743;52.160;20.910;2023-12-22T01:08:47;23.20;31.50
21171;DHT22;10743;52.160;20.910;2023-12-22T01:11:17;23.20;31.50
21171;DHT22;10743;52.160;20.910;2023-12-22T01:13:44;23.10;31.50
21171;DHT22;10743;52.160;20.910;2023-12-22T01:16:11;23.10;31.40
21171;DHT22;10743;52.160;20.910;2023-12-22T01:18:38;23.10;31.50
21171;DHT22;10743;52.160;20.910;2023-12-22T01:21:09;23.10;31.40
21171;DHT22;10743;52.160;20.910;2023-12-22T01:23:36;23.00;31.30
21171;DHT22;10743;52.160;20.910;2023-12-22T01:26:03;23.10;30.80
21171;DHT22;10743;52.160;20.910;2023-12-22T01:28:30;23.10;30.50
21171;DHT22;10743;52.160;20.910;2023-12-22T01:30:57;23.10;30.70
21171;DHT22;10743;52.160;20.910;2023-12-22T01:33:24;23.10;30.60
21171;DHT22;10743;52.160;20.910;2023-12-22T01:35:51;23.00;30.60
21171;DHT22;10743;52.160;20.910;2023-12-22T01:38:19;23.10;30.30
21171;DHT22;10743;52.160;20.910;2023-12-22T01:40:46;23.00;30.50
21171;DHT22;10743;52.160;20.910;2023-12-22T01:43:13;22.90;30.60
21171;DHT22;10743;52.160;20.910;2023-12-22T01:45:41;22.90;30.70
21171;DHT22;10743;52.160;20.910;2023-12-22T01:48:10;22.90;30.70
21171;DHT22;10743;52.160;20.910;2023-12-22T01:50:37;22.80;30.50
21171;DHT22;10743;52.160;20.910;2023-12-22T01:53:05;22.90;30.70
21171;DHT22;10743;52.160;20.910;2023-12-22T01:55:33;22.90;30.60
21171;DHT22;10743;52.160;20.910;2023-12-22T01:58:00;22.90;30.40
21171;DHT22;10743;52.160;20.910;2023-12-22T02:00:27;22.90;30.50
21171;DHT22;10743;52.160;20.910;2023-12-22T02:02:55;22.90;30.20
21171;DHT22;10743;52.160;20.910;2023-12-22T02:05:22;22.90;30.10
21171;DHT22;10743;52.160;20.910;2023-12-22T02:07:49;22.80;30.30
21171;DHT22;10743;52.160;20.910;2023-12-22T02:10:17;22.90;30.30
21171;DHT22;10743;52.160;20.910;2023-12-22T02:12:43;22.90;30.20
21171;DHT22;10743;52.160;20.910;2023-12-22T02:15:10;23.00;30.00
21171;DHT22;10743;52.160;20.910;2023-12-22T02:17:48;23.00;30.20
21171;DHT22;10743;52.160;20.910;2023-12-22T02:20:21;22.90;30.20
21171;DHT22;10743;52.160;20.910;2023-12-22T02:22:54;22.90;30.30
21171;DHT22;10743;52.160;20.910;2023-12-22T02:25:21;23.00;30.20
21171;DHT22;10743;52.160;20.910;2023-12-22T02:28:01;23.00;30.30
21171;DHT22;10743;52.160;20.910;2023-12-22T02:30:56;22.90;30.20
21171;DHT22;10743;52.160;20.910;2023-12-22T02:33:29;23.00;30.40
21171;DHT22;10743;52.160;20.910;2023-12-22T02:36:03;22.90;30.40
21171;DHT22;10743;52.160;20.910;2023-12-22T02:38:31;22.90;30.30
21171;DHT22;10743;52.160;20.910;2023-12-22T02:40:59;23.00;30.30
21171;DHT22;10743;52.160;20.910;2023-12-22T02:43:27;23.00;30.30
21171;DHT22;10743;52.160;20.910;2023-12-22T02:45:55;23.00;30.40
21171;DHT22;10743;52.160;20.910;2023-12-22T02:48:22;23.00;30.20
21171;DHT22;10743;52.160;20.910;2023-12-22T02:50:49;23.00;30.20
21171;DHT22;10743;52.160;20.910;2023-12-22T02:53:16;23.00;30.20
21171;DHT22;10743;52.160;20.910;2023-12-22T02:55:43;23.00;30.00
21171;DHT22;10743;52.160;20.910;2023-12-22T02:58:11;23.00;30.00
21171;DHT22;10743;52.160;20.910;2023-12-22T03:00:38;23.00;29.90
21171;DHT22;10743;52.160;20.910;2023-12-22T03:03:05;23.00;29.90
21171;DHT22;10743;52.160;20.910;2023-12-22T03:05:32;23.00;30.00
21171;DHT22;10743;52.160;20.910;2023-12-22T03:07:59;22.90;30.10
21171;DHT22;10743;52.160;20.910;2023-12-22T03:10:29;23.00;29.80
21171;DHT22;10743;52.160;20.910;2023-12-22T03:12:56;23.00;29.80
21171;DHT22;10743;52.160;20.910;2023-12-22T03:15:23;23.10;29.80
21171;DHT22;10743;52.160;20.910;2023-12-22T03:17:50;23.00;30.00
21171;DHT22;10743;52.160;20.910;2023-12-22T03:20:18;23.00;30.40
21171;DHT22;10743;52.160;20.910;2023-12-22T03:22:45;23.00;30.30
21171;DHT22;10743;52.160;20.910;2023-12-22T03:25:12;23.00;30.10
21171;DHT22;10743;52.160;20.910;2023-12-22T03:27:39;23.00;30.10
21171;DHT22;10743;52.160;20.910;2023-12-22T03:30:06;23.00;30.20
21171;DHT22;10743;52.160;20.910;2023-12-22T03:32:34;22.90;30.50
21171;DHT22;10743;52.160;20.910;2023-12-22T03:35:01;22.90;30.70
21171;DHT22;10743;52.160;20.910;2023-12-22T03:37:28;22.80;30.50
21171;DHT22;10743;52.160;20.910;2023-12-22T03:39:55;22.80;30.90
21171;DHT22;10743;52.160;20.910;2023-12-22T03:42:22;22.80;30.70
21171;DHT22;10743;52.160;20.910;2023-12-22T03:44:49;22.80;30.40
21171;DHT22;10743;52.160;20.910;2023-12-22T03:47:16;22.80;30.40
21171;DHT22;10743;52.160;20.910;2023-12-22T03:49:43;22.70;30.40
21171;DHT22;10743;52.160;20.910;2023-12-22T03:52:10;22.70;30.50
21171;DHT22;10743;52.160;20.910;2023-12-22T03:54:37;22.60;30.50
21171;DHT22;10743;52.160;20.910;2023-12-22T03:57:04;22.60;30.70
21171;DHT22;10743;52.160;20.910;2023-12-22T03:59:31;22.60;30.50
21171;DHT22;10743;52.160;20.910;2023-12-22T04:01:58;22.60;30.60
21171;DHT22;10743;52.160;20.910;2023-12-22T04:04:28;22.70;30.50
21171;DHT22;10743;52.160;20.910;2023-12-22T04:06:55;22.70;30.50
21171;DHT22;10743;52.160;20.910;2023-12-22T04:09:22;22.70;30.50
21171;DHT22;10743;52.160;20.910;2023-12-22T04:11:49;22.70;30.30
21171;DHT22;10743;52.160;20.910;2023-12-22T04:14:16;22.70;30.30
21171;DHT22;10743;52.160;20.910;2023-12-22T04:16:45;22.70;30.40
21171;DHT22;10743;52.160;20.910;2023-12-22T04:19:12;22.70;30.40
21171;DHT22;10743;52.160;20.910;2023-12-22T04:21:39;22.70;30.40
21171;DHT22;10743;52.160;20.910;2023-12-22T04:24:06;22.60;30.40
21171;DHT22;10743;52.160;20.910;2023-12-22T04:26:33;22.60;30.50
21171;DHT22;10743;52.160;20.910;2023-12-22T04:29:00;22.60;30.30
21171;DHT22;10743;52.160;20.910;2023-12-22T04:31:27;22.70;30.00
21171;DHT22;10743;52.160;20.910;2023-12-22T04:33:54;22.70;30.00
21171;DHT22;10743;52.160;20.910;2023-12-22T04:36:22;22.60;30.10
21171;DHT22;10743;52.160;20.910;2023-12-22T04:38:49;22.60;30.10
21171;DHT22;10743;52.160;20.910;2023-12-22T04:41:17;22.60;30.10
21171;DHT22;10743;52.160;20.910;2023-12-22T04:43:44;22.60;30.30
21171;DHT22;10743;52.160;20.910;2023-12-22T04:46:11;22.60;30.50
21171;DHT22;10743;52.160;20.910;2023-12-22T04:48:38;22.50;30.80
21171;DHT22;10743;52.160;20.910;2023-12-22T04:51:05;22.50;31.10
21171;DHT22;10743;52.160;20.910;2023-12-22T04:53:32;22.50;31.20
21171;DHT22;10743;52.160;20.910;2023-12-22T04:55:59;22.50;31.20
21171;DHT22;10743;52.160;20.910;2023-12-22T04:58:26;22.50;31.70
21171;DHT22;10743;52.160;20.910;2023-12-22T05:00:53;22.40;31.90
21171;DHT22;10743;52.160;20.910;2023-12-22T05:03:20;22.30;32.10
21171;DHT22;10743;52.160;20.910;2023-12-22T05:05:47;22.10;32.50
21171;DHT22;10743;52.160;20.910;2023-12-22T05:08:14;22.10;32.40
21171;DHT22;10743;52.160;20.910;2023-12-22T05:10:43;22.10;32.30
21171;DHT22;10743;52.160;20.910;2023-12-22T05:13:10;22.00;32.40
21171;DHT22;10743;52.160;20.910;2023-12-22T05:15:36;21.90;32.60
21171;DHT22;10743;52.160;20.910;2023-12-22T05:18:04;22.00;32.40
21171;DHT22;10743;52.160;20.910;2023-12-22T05:20:31;21.90;32.70
21171;DHT22;10743;52.160;20.910;2023-12-22T05:22:58;21.80;32.90
21171;DHT22;10743;52.160;20.910;2023-12-22T05:25:25;21.80;32.90
21171;DHT22;10743;52.160;20.910;2023-12-22T05:27:52;21.80;32.90
21171;DHT22;10743;52.160;20.910;2023-12-22T05:30:19;21.80;33.00
21171;DHT22;10743;52.160;20.910;2023-12-22T05:32:47;21.80;32.90
21171;DHT22;10743;52.160;20.910;2023-12-22T05:35:14;21.70;32.80
21171;DHT22;10743;52.160;20.910;2023-12-22T05:37:41;21.70;32.80
21171;DHT22;10743;52.160;20.910;2023-12-22T05:40:08;21.70;32.80
21171;DHT22;10743;52.160;20.910;2023-12-22T05:42:36;21.70;32.80
21171;DHT22;10743;52.160;20.910;2023-12-22T05:45:04;21.70;32.50
21171;DHT22;10743;52.160;20.910;2023-12-22T05:47:33;21.80;32.50
21171;DHT22;10743;52.160;20.910;2023-12-22T05:50:00;21.70;32.70
21171;DHT22;10743;52.160;20.910;2023-12-22T05:52:27;21.70;32.50
21171;DHT22;10743;52.160;20.910;2023-12-22T05:54:54;21.80;32.10
21171;DHT22;10743;52.160;20.910;2023-12-22T05:57:21;21.70;32.30
21171;DHT22;10743;52.160;20.910;2023-12-22T05:59:48;21.80;32.00
21171;DHT22;10743;52.160;20.910;2023-12-22T06:02:15;21.70;32.10
21171;DHT22;10743;52.160;20.910;2023-12-22T06:04:42;21.80;31.70
21171;DHT22;10743;52.160;20.910;2023-12-22T06:07:11;21.80;31.80
21171;DHT22;10743;52.160;20.910;2023-12-22T06:09:38;21.70;32.00
21171;DHT22;10743;52.160;20.910;2023-12-22T06:12:06;21.70;31.90
21171;DHT22;10743;52.160;20.910;2023-12-22T06:14:36;21.70;31.70
21171;DHT22;10743;52.160;20.910;2023-12-22T06:17:03;21.70;31.20
21171;DHT22;10743;52.160;20.910;2023-12-22T06:19:30;21.80;31.10
21171;DHT22;10743;52.160;20.910;2023-12-22T06:21:57;21.80;30.90
21171;DHT22;10743;52.160;20.910;2023-12-22T06:24:27;21.80;31.20
21171;DHT22;10743;52.160;20.910;2023-12-22T06:26:54;21.80;30.20
21171;DHT22;10743;52.160;20.910;2023-12-22T06:29:22;22.00;29.50
21171;DHT22;10743;52.160;20.910;2023-12-22T06:31:49;22.00;29.40
21171;DHT22;10743;52.160;20.910;2023-12-22T06:34:17;22.00;29.40
21171;DHT22;10743;52.160;20.910;2023-12-22T06:36:44;22.00;29.00
21171;DHT22;10743;52.160;20.910;2023-12-22T06:39:11;21.90;29.30
21171;DHT22;10743;52.160;20.910;2023-12-22T06:41:38;21.90;29.20
21171;DHT22;10743;52.160;20.910;2023-12-22T06:44:05;21.90;29.00
21171;DHT22;10743;52.160;20.910;2023-12-22T06:46:32;22.00;28.60
21171;DHT22;10743;52.160;20.910;2023-12-22T06:49:00;22.00;28.20
21171;DHT22;10743;52.160;20.910;2023-12-22T06:51:31;22.00;28.40
21171;DHT22;10743;52.160;20.910;2023-12-22T06:54:02;22.00;27.70
21171;DHT22;10743;52.160;20.910;2023-12-22T06:56:33;22.10;27.80
21171;DHT22;10743;52.160;20.910;2023-12-22T06:59:01;22.10;27.60
21171;DHT22;10743;52.160;20.910;2023-12-22T07:01:33;22.10;27.80
21171;DHT22;10743;52.160;20.910;2023-12-22T07:04:03;22.00;27.90
21171;DHT22;10743;52.160;20.910;2023-12-22T07:06:32;22.00;27.90
21171;DHT22;10743;52.160;20.910;2023-12-22T07:14:19;22.10;27.80
21171;DHT22;10743;52.160;20.910;2023-12-22T07:16:47;22.10;27.40
21171;DHT22;10743;52.160;20.910;2023-12-22T07:19:14;22.10;27.50
21171;DHT22;10743;52.160;20.910;2023-12-22T07:21:41;22.10;27.40
21171;DHT22;10743;52.160;20.910;2023-12-22T07:24:11;22.00;27.30
21171;DHT22;10743;52.160;20.910;2023-12-22T07:26:42;22.00;27.60
21171;DHT22;10743;52.160;20.910;2023-12-22T07:29:11;22.00;27.40
21171;DHT22;10743;52.160;20.910;2023-12-22T07:31:38;22.10;27.20
21171;DHT22;10743;52.160;20.910;2023-12-22T07:34:05;22.10;27.00
21171;DHT22;10743;52.160;20.910;2023-12-22T07:36:35;22.10;27.30
21171;DHT22;10743;52.160;20.910;2023-12-22T07:39:11;22.10;27.20
21171;DHT22;10743;52.160;20.910;2023-12-22T07:41:38;22.00;27.40
21171;DHT22;10743;52.160;20.910;2023-12-22T07:44:05;22.00;27.30
21171;DHT22;10743;52.160;20.910;2023-12-22T07:46:34;22.00;27.20
21171;DHT22;10743;52.160;20.910;2023-12-22T07:49:01;21.90;27.40
21171;DHT22;10743;52.160;20.910;2023-12-22T07:51:28;21.90;27.40
21171;DHT22;10743;52.160;20.910;2023-12-22T07:53:55;21.90;27.50
21171;DHT22;10743;52.160;20.910;2023-12-22T07:56:22;21.80;27.60
21171;DHT22;10743;52.160;20.910;2023-12-22T07:58:49;21.80;27.40
21171;DHT22;10743;52.160;20.910;2023-12-22T08:01:16;21.80;27.20
21171;DHT22;10743;52.160;20.910;2023-12-22T08:03:44;21.80;27.00
21171;DHT22;10743;52.160;20.910;2023-12-22T08:06:11;21.70;26.90
21171;DHT22;10743;52.160;20.910;2023-12-22T08:08:40;21.70;27.00
21171;DHT22;10743;52.160;20.910;2023-12-22T08:11:06;21.80;26.90
21171;DHT22;10743;52.160;20.910;2023-12-22T08:13:34;21.80;26.80
21171;DHT22;10743;52.160;20.910;2023-12-22T08:16:02;21.80;26.80
21171;DHT22;10743;52.160;20.910;2023-12-22T08:18:29;21.80;27.10
21171;DHT22;10743;52.160;20.910;2023-12-22T08:20:58;21.80;27.10
21171;DHT22;10743;52.160;20.910;2023-12-22T08:23:30;21.70;27.40
21171;DHT22;10743;52.160;20.910;2023-12-22T08:25:58;21.70;27.20
21171;DHT22;10743;52.160;20.910;2023-12-22T08:28:25;21.70;27.40
21171;DHT22;10743;52.160;20.910;2023-12-22T08:30:52;21.70;27.50
21171;DHT22;10743;52.160;20.910;2023-12-22T08:33:19;21.70;27.70
21171;DHT22;10743;52.160;20.910;2023-12-22T08:35:46;21.70;27.70
21171;DHT22;10743;52.160;20.910;2023-12-22T08:38:13;21.70;27.90
21171;DHT22;10743;52.160;20.910;2023-12-22T08:40:42;21.70;28.50
21171;DHT22;10743;52.160;20.910;2023-12-22T08:43:09;21.70;28.10
21171;DHT22;10743;52.160;20.910;2023-12-22T08:45:36;21.70;28.10
21171;DHT22;10743;52.160;20.910;2023-12-22T08:48:03;21.70;28.10
21171;DHT22;10743;52.160;20.910;2023-12-22T08:50:35;21.70;28.00
21171;DHT22;10743;52.160;20.910;2023-12-22T08:53:02;21.70;28.10
21171;DHT22;10743;52.160;20.910;2023-12-22T08:55:29;21.70;28.30
21171;DHT22;10743;52.160;20.910;2023-12-22T08:57:56;21.60;28.30
21171;DHT22;10743;52.160;20.910;2023-12-22T09:00:29;21.70;28.20
21171;DHT22;10743;52.160;20.910;2023-12-22T09:02:56;21.70;28.30
21171;DHT22;10743;52.160;20.910;2023-12-22T09:05:23;21.60;28.40
21171;DHT22;10743;52.160;20.910;2023-12-22T09:07:50;21.70;28.30
21171;DHT22;10743;52.160;20.910;2023-12-22T09:10:17;21.70;28.30
21171;DHT22;10743;52.160;20.910;2023-12-22T09:12:45;21.70;28.20
21171;DHT22;10743;52.160;20.910;2023-12-22T09:15:13;21.70;28.10
21171;DHT22;10743;52.160;20.910;2023-12-22T09:17:40;21.70;28.20
21171;DHT22;10743;52.160;20.910;2023-12-22T09:20:11;21.80;28.10
21171;DHT22;10743;52.160;20.910;2023-12-22T09:22:39;21.90;27.90
21171;DHT22;10743;52.160;20.910;2023-12-22T09:25:06;21.90;27.90
21171;DHT22;10743;52.160;20.910;2023-12-22T09:27:35;21.90;27.70
21171;DHT22;10743;52.160;20.910;2023-12-22T09:30:03;22.00;27.70
21171;DHT22;10743;52.160;20.910;2023-12-22T09:32:33;22.10;27.30
21171;DHT22;10743;52.160;20.910;2023-12-22T09:35:01;22.10;27.40
21171;DHT22;10743;52.160;20.910;2023-12-22T09:37:29;22.10;27.30
21171;DHT22;10743;52.160;20.910;2023-12-22T09:39:57;22.10;27.20
21171;DHT22;10743;52.160;20.910;2023-12-22T09:42:25;22.20;27.30
21171;DHT22;10743;52.160;20.910;2023-12-22T09:44:53;22.20;27.30
21171;DHT22;10743;52.160;20.910;2023-12-22T09:47:22;22.20;27.30
21171;DHT22;10743;52.160;20.910;2023-12-22T09:49:52;22.20;27.50
21171;DHT22;10743;52.160;20.910;2023-12-22T09:52:19;22.20;27.50
21171;DHT22;10743;52.160;20.910;2023-12-22T09:54:48;22.40;27.20
21171;DHT22;10743;52.160;20.910;2023-12-22T09:57:15;22.40;26.90
21171;DHT22;10743;52.160;20.910;2023-12-22T09:59:54;22.40;27.00
21171;DHT22;10743;52.160;20.910;2023-12-22T10:02:25;22.40;26.90
21171;DHT22;10743;52.160;20.910;2023-12-22T10:04:53;22.50;27.00
21171;DHT22;10743;52.160;20.910;2023-12-22T10:07:20;22.40;27.10
21171;DHT22;10743;52.160;20.910;2023-12-22T10:09:49;22.50;27.30
21171;DHT22;10743;52.160;20.910;2023-12-22T10:12:18;22.50;27.30
21171;DHT22;10743;52.160;20.910;2023-12-22T10:14:47;22.40;28.20
21171;DHT22;10743;52.160;20.910;2023-12-22T10:17:15;22.40;28.90
21171;DHT22;10743;52.160;20.910;2023-12-22T10:19:43;22.20;29.30
21171;DHT22;10743;52.160;20.910;2023-12-22T10:22:10;22.00;29.40
21171;DHT22;10743;52.160;20.910;2023-12-22T10:24:42;21.80;29.60
21171;DHT22;10743;52.160;20.910;2023-12-22T10:27:11;21.60;29.90
21171;DHT22;10743;52.160;20.910;2023-12-22T10:29:40;21.50;30.20
21171;DHT22;10743;52.160;20.910;2023-12-22T10:32:07;21.30;30.40
21171;DHT22;10743;52.160;20.910;2023-12-22T10:34:35;21.20;30.60
21171;DHT22;10743;52.160;20.910;2023-12-22T10:37:03;21.00;31.10
21171;DHT22;10743;52.160;20.910;2023-12-22T10:39:31;20.90;31.40
21171;DHT22;10743;52.160;20.910;2023-12-22T10:41:59;20.80;31.40
21171;DHT22;10743;52.160;20.910;2023-12-22T10:44:27;20.70;31.70
21171;DHT22;10743;52.160;20.910;2023-12-22T10:46:56;20.60;31.70
21171;DHT22;10743;52.160;20.910;2023-12-22T10:49:25;20.50;32.00
21171;DHT22;10743;52.160;20.910;2023-12-22T10:51:52;20.40;32.80
21171;DHT22;10743;52.160;20.910;2023-12-22T10:54:19;20.30;32.30
21171;DHT22;10743;52.160;20.910;2023-12-22T10:56:47;20.20;32.50
21171;DHT22;10743;52.160;20.910;2023-12-22T10:59:18;20.10;32.60
21171;DHT22;10743;52.160;20.910;2023-12-22T11:01:45;20.00;32.80
21171;DHT22;10743;52.160;20.910;2023-12-22T11:04:18;19.90;33.10
21171;DHT22;10743;52.160;20.910;2023-12-22T11:06:49;19.90;33.20
21171;DHT22;10743;52.160;20.910;2023-12-22T11:09:17;19.80;33.40
21171;DHT22;10743;52.160;20.910;2023-12-22T11:11:47;19.80;33.50
21171;DHT22;10743;52.160;20.910;2023-12-22T11:14:17;19.80;33.60
21171;DHT22;10743;52.160;20.910;2023-12-22T11:16:44;19.80;33.60
21171;DHT22;10743;52.160;20.910;2023-12-22T11:19:15;19.80;33.60
21171;DHT22;10743;52.160;20.910;2023-12-22T11:21:43;19.80;33.60
21171;DHT22;10743;52.160;20.910;2023-12-22T11:24:13;19.80;33.50
21171;DHT22;10743;52.160;20.910;2023-12-22T11:26:45;19.80;33.50
21171;DHT22;10743;52.160;20.910;2023-12-22T11:29:15;19.80;33.50
21171;DHT22;10743;52.160;20.910;2023-12-22T11:31:45;19.90;33.50
21171;DHT22;10743;52.160;20.910;2023-12-22T11:34:14;19.90;33.50
21171;DHT22;10743;52.160;20.910;2023-12-22T11:36:46;19.90;33.60
21171;DHT22;10743;52.160;20.910;2023-12-22T11:39:14;19.90;33.70
21171;DHT22;10743;52.160;20.910;2023-12-22T11:41:42;19.90;33.80
21171;DHT22;10743;52.160;20.910;2023-12-22T11:44:09;19.90;33.80
21171;DHT22;10743;52.160;20.910;2023-12-22T11:46:37;20.00;33.80
21171;DHT22;10743;52.160;20.910;2023-12-22T11:49:04;20.00;33.80
21171;DHT22;10743;52.160;20.910;2023-12-22T11:51:32;19.90;33.90
21171;DHT22;10743;52.160;20.910;2023-12-22T11:54:03;20.00;33.60
21171;DHT22;10743;52.160;20.910;2023-12-22T11:56:30;20.10;33.80
21171;DHT22;10743;52.160;20.910;2023-12-22T11:58:58;20.10;33.50
21171;DHT22;10743;52.160;20.910;2023-12-22T12:01:27;20.10;33.50
21171;DHT22;10743;52.160;20.910;2023-12-22T12:04:02;20.20;33.60
21171;DHT22;10743;52.160;20.910;2023-12-22T12:06:32;20.20;33.50
21171;DHT22;10743;52.160;20.910;2023-12-22T12:09:05;20.20;33.50
21171;DHT22;10743;52.160;20.910;2023-12-22T12:14:40;20.20;33.50
21171;DHT22;10743;52.160;20.910;2023-12-22T12:17:09;20.20;33.60
21171;DHT22;10743;52.160;20.910;2023-12-22T12:19:38;20.30;33.50
21171;DHT22;10743;52.160;20.910;2023-12-22T12:22:05;20.20;33.60
21171;DHT22;10743;52.160;20.910;2023-12-22T12:24:32;20.30;33.50
21171;DHT22;10743;52.160;20.910;2023-12-22T12:27:00;20.30;33.50
21171;DHT22;10743;52.160;20.910;2023-12-22T12:29:27;20.30;33.50
21171;DHT22;10743;52.160;20.910;2023-12-22T12:32:03;20.20;33.50
21171;DHT22;10743;52.160;20.910;2023-12-22T12:34:32;20.30;33.40
21171;DHT22;10743;52.160;20.910;2023-12-22T12:37:00;20.30;33.50
21171;DHT22;10743;52.160;20.910;2023-12-22T12:39:30;20.30;33.50
21171;DHT22;10743;52.160;20.910;2023-12-22T12:42:00;20.30;33.50
21171;DHT22;10743;52.160;20.910;2023-12-22T12:44:30;20.30;33.50
21171;DHT22;10743;52.160;20.910;2023-12-22T12:47:11;20.30;33.50
21171;DHT22;10743;52.160;20.910;2023-12-22T12:49:42;20.30;33.50
21171;DHT22;10743;52.160;20.910;2023-12-22T12:52:13;20.30;33.70
21171;DHT22;10743;52.160;20.910;2023-12-22T12:54:42;20.30;33.70
21171;DHT22;10743;52.160;20.910;2023-12-22T12:57:17;20.40;33.70
21171;DHT22;10743;52.160;20.910;2023-12-22T12:59:50;20.40;33.80
21171;DHT22;10743;52.160;20.910;2023-12-22T13:02:18;20.30;33.80
21171;DHT22;10743;52.160;20.910;2023-12-22T13:04:46;20.30;33.90
21171;DHT22;10743;52.160;20.910;2023-12-22T13:07:13;20.30;34.00
21171;DHT22;10743;52.160;20.910;2023-12-22T13:09:40;20.30;34.10
21171;DHT22;10743;52.160;20.910;2023-12-22T13:12:11;20.30;34.10
21171;DHT22;10743;52.160;20.910;2023-12-22T13:14:38;20.30;34.20
21171;DHT22;10743;52.160;20.910;2023-12-22T13:17:05;20.30;34.10
21171;DHT22;10743;52.160;20.910;2023-12-22T13:19:33;20.30;34.20
21171;DHT22;10743;52.160;20.910;2023-12-22T13:22:00;20.20;34.30
21171;DHT22;10743;52.160;20.910;2023-12-22T13:24:27;20.30;34.20
21171;DHT22;10743;52.160;20.910;2023-12-22T13:27:02;20.30;34.30
21171;DHT22;10743;52.160;20.910;2023-12-22T13:29:42;20.30;34.30
21171;DHT22;10743;52.160;20.910;2023-12-22T13:32:18;20.20;34.40
21171;DHT22;10743;52.160;20.910;2023-12-22T13:34:48;20.20;34.40
21171;DHT22;10743;52.160;20.910;2023-12-22T13:37:25;20.30;34.30
21171;DHT22;10743;52.160;20.910;2023-12-22T13:39:57;20.20;34.40
21171;DHT22;10743;52.160;20.910;2023-12-22T13:42:24;20.30;34.30
21171;DHT22;10743;52.160;20.910;2023-12-22T13:44:52;20.40;34.30
21171;DHT22;10743;52.160;20.910;2023-12-22T13:47:20;20.30;34.30
21171;DHT22;10743;52.160;20.910;2023-12-22T13:49:47;20.40;34.30
21171;DHT22;10743;52.160;20.910;2023-12-22T13:52:33;20.40;34.30
21171;DHT22;10743;52.160;20.910;2023-12-22T13:55:09;20.40;34.30
21171;DHT22;10743;52.160;20.910;2023-12-22T13:57:37;20.40;34.40
21171;DHT22;10743;52.160;20.910;2023-12-22T14:02:46;20.30;34.50
21171;DHT22;10743;52.160;20.910;2023-12-22T14:05:16;20.30;34.50
21171;DHT22;10743;52.160;20.910;2023-12-22T14:07:44;20.30;34.60
21171;DHT22;10743;52.160;20.910;2023-12-22T14:10:11;20.30;34.50
21171;DHT22;10743;52.160;20.910;2023-12-22T14:12:39;20.20;34.50
21171;DHT22;10743;52.160;20.910;2023-12-22T14:15:08;20.20;34.60
21171;DHT22;10743;52.160;20.910;2023-12-22T14:17:37;20.20;34.60
21171;DHT22;10743;52.160;20.910;2023-12-22T14:20:04;20.20;34.70
21171;DHT22;10743;52.160;20.910;2023-12-22T14:22:35;20.30;34.60
21171;DHT22;10743;52.160;20.910;2023-12-22T14:25:03;20.30;34.60
21171;DHT22;10743;52.160;20.910;2023-12-22T14:27:30;20.30;34.60
21171;DHT22;10743;52.160;20.910;2023-12-22T14:29:57;20.20;34.60
21171;DHT22;10743;52.160;20.910;2023-12-22T14:32:24;20.20;34.60
21171;DHT22;10743;52.160;20.910;2023-12-22T14:34:51;20.20;34.60
21171;DHT22;10743;52.160;20.910;2023-12-22T14:37:18;20.20;34.70
21171;DHT22;10743;52.160;20.910;2023-12-22T14:39:47;20.10;34.70
21171;DHT22;10743;52.160;20.910;2023-12-22T14:42:14;20.10;34.80
21171;DHT22;10743;52.160;20.910;2023-12-22T14:44:41;20.10;34.70
21171;DHT22;10743;52.160;20.910;2023-12-22T14:47:08;20.10;34.80
21171;DHT22;10743;52.160;20.910;2023-12-22T14:49:39;20.10;34.80
21171;DHT22;10743;52.160;20.910;2023-12-22T14:52:07;20.10;34.80
21171;DHT22;10743;52.160;20.910;2023-12-22T14:54:35;20.20;34.60
21171;DHT22;10743;52.160;20.910;2023-12-22T14:57:02;20.20;34.60
21171;DHT22;10743;52.160;20.910;2023-12-22T14:59:29;20.20;34.50
21171;DHT22;10743;52.160;20.910;2023-12-22T15:01:56;20.20;34.50
21171;DHT22;10743;52.160;20.910;2023-12-22T15:04:23;20.20;34.60
21171;DHT22;10743;52.160;20.910;2023-12-22T15:06:51;20.20;34.50
21171;DHT22;10743;52.160;20.910;2023-12-22T15:09:27;20.30;34.60
21171;DHT22;10743;52.160;20.910;2023-12-22T15:11:54;20.30;34.30
21171;DHT22;10743;52.160;20.910;2023-12-22T15:14:23;20.30;34.40
21171;DHT22;10743;52.160;20.910;2023-12-22T15:16:50;20.20;34.30
21171;DHT22;10743;52.160;20.910;2023-12-22T15:19:20;20.20;34.50
21171;DHT22;10743;52.160;20.910;2023-12-22T15:21:47;20.30;34.50
21171;DHT22;10743;52.160;20.910;2023-12-22T15:24:14;20.30;34.60
21171;DHT22;10743;52.160;20.910;2023-12-22T15:26:41;20.30;34.50
21171;DHT22;10743;52.160;20.910;2023-12-22T15:29:09;20.30;34.60
21171;DHT22;10743;52.160;20.910;2023-12-22T15:31:36;20.20;34.60
21171;DHT22;10743;52.160;20.910;2023-12-22T15:34:04;20.30;34.60